sensor_id;sensor_type;location;lat;lon;timestamp;P1;durP1;ratioP1;P2;durP2;ratioP2
30948;SDS011;17637;51.984;21.208;2022-12-18T00:01:45;57.40;;;32.58;;
30948;SDS011;17637;51.984;21.208;2022-12-18T00:04:21;57.55;;;31.08;;
30948;SDS011;17637;51.984;21.208;2022-12-18T00:06:54;56.45;;;31.48;;
30948;SDS011;17637;51.984;21.208;2022-12-18T00:09:26;55.95;;;32.88;;
30948;SDS011;17637;51.984;21.208;2022-12-18T00:12:10;55.17;;;30.40;;
30948;SDS011;17637;51.984;21.208;2022-12-18T00:14:45;51.17;;;26.45;;
30948;SDS011;17637;51.984;21.208;2022-12-18T00:17:17;52.63;;;28.92;;
30948;SDS011;17637;51.984;21.208;2022-12-18T00:19:49;52.47;;;29.40;;
30948;SDS011;17637;51.984;21.208;2022-12-18T00:22:21;54.47;;;31.13;;
30948;SDS011;17637;51.984;21.208;2022-12-18T00:24:54;55.13;;;28.52;;
30948;SDS011;17637;51.984;21.208;2022-12-18T00:27:25;52.95;;;26.52;;
30948;SDS011;17637;51.984;21.208;2022-12-18T00:29:57;59.38;;;32.53;;
30948;SDS011;17637;51.984;21.208;2022-12-18T00:32:29;56.95;;;32.65;;
30948;SDS011;17637;51.984;21.208;2022-12-18T00:35:01;58.35;;;30.83;;
30948;SDS011;17637;51.984;21.208;2022-12-18T00:37:34;59.53;;;34.30;;
30948;SDS011;17637;51.984;21.208;2022-12-18T00:40:06;65.03;;;33.38;;
30948;SDS011;17637;51.984;21.208;2022-12-18T00:42:39;63.88;;;33.92;;
30948;SDS011;17637;51.984;21.208;2022-12-18T00:45:30;60.92;;;32.40;;
30948;SDS011;17637;51.984;21.208;2022-12-18T00:48:02;56.80;;;28.40;;
30948;SDS011;17637;51.984;21.208;2022-12-18T00:50:35;57.65;;;32.38;;
30948;SDS011;17637;51.984;21.208;2022-12-18T00:53:07;56.72;;;30.33;;
30948;SDS011;17637;51.984;21.208;2022-12-18T00:55:39;59.70;;;32.53;;
30948;SDS011;17637;51.984;21.208;2022-12-18T00:58:12;64.13;;;34.67;;
30948;SDS011;17637;51.984;21.208;2022-12-18T01:00:45;55.40;;;29.88;;
30948;SDS011;17637;51.984;21.208;2022-12-18T01:03:17;66.05;;;35.22;;
30948;SDS011;17637;51.984;21.208;2022-12-18T01:05:49;57.17;;;30.83;;
30948;SDS011;17637;51.984;21.208;2022-12-18T01:08:21;65.45;;;35.55;;
30948;SDS011;17637;51.984;21.208;2022-12-18T01:10:54;64.40;;;35.05;;
30948;SDS011;17637;51.984;21.208;2022-12-18T01:13:26;54.53;;;30.45;;
30948;SDS011;17637;51.984;21.208;2022-12-18T01:15:58;53.88;;;30.90;;
30948;SDS011;17637;51.984;21.208;2022-12-18T01:18:30;63.53;;;33.05;;
30948;SDS011;17637;51.984;21.208;2022-12-18T01:21:09;64.78;;;36.63;;
30948;SDS011;17637;51.984;21.208;2022-12-18T01:23:43;57.45;;;30.88;;
30948;SDS011;17637;51.984;21.208;2022-12-18T01:26:15;53.17;;;28.50;;
30948;SDS011;17637;51.984;21.208;2022-12-18T01:28:48;56.42;;;31.25;;
30948;SDS011;17637;51.984;21.208;2022-12-18T01:31:26;59.50;;;30.85;;
30948;SDS011;17637;51.984;21.208;2022-12-18T01:34:01;57.80;;;30.30;;
30948;SDS011;17637;51.984;21.208;2022-12-18T01:36:34;73.20;;;38.42;;
30948;SDS011;17637;51.984;21.208;2022-12-18T01:39:12;60.88;;;31.75;;
30948;SDS011;17637;51.984;21.208;2022-12-18T01:41:45;63.38;;;33.60;;
30948;SDS011;17637;51.984;21.208;2022-12-18T01:50:18;61.92;;;32.80;;
30948;SDS011;17637;51.984;21.208;2022-12-18T01:53:06;59.40;;;31.67;;
30948;SDS011;17637;51.984;21.208;2022-12-18T01:55:50;68.82;;;37.65;;
30948;SDS011;17637;51.984;21.208;2022-12-18T02:01:26;64.15;;;32.72;;
30948;SDS011;17637;51.984;21.208;2022-12-18T02:09:47;67.32;;;33.25;;
30948;SDS011;17637;51.984;21.208;2022-12-18T02:12:23;61.03;;;31.23;;
30948;SDS011;17637;51.984;21.208;2022-12-18T02:15:09;73.75;;;34.67;;
30948;SDS011;17637;51.984;21.208;2022-12-18T02:18:05;67.65;;;31.80;;
30948;SDS011;17637;51.984;21.208;2022-12-18T02:20:49;61.10;;;32.08;;
30948;SDS011;17637;51.984;21.208;2022-12-18T02:26:30;59.40;;;29.50;;
30948;SDS011;17637;51.984;21.208;2022-12-18T02:29:22;56.30;;;26.40;;
30948;SDS011;17637;51.984;21.208;2022-12-18T02:31:59;70.00;;;32.72;;
30948;SDS011;17637;51.984;21.208;2022-12-18T02:34:32;65.60;;;32.40;;
30948;SDS011;17637;51.984;21.208;2022-12-18T02:37:10;59.95;;;27.33;;
30948;SDS011;17637;51.984;21.208;2022-12-18T02:39:46;58.45;;;29.75;;
30948;SDS011;17637;51.984;21.208;2022-12-18T02:42:20;57.30;;;27.60;;
30948;SDS011;17637;51.984;21.208;2022-12-18T02:44:53;52.90;;;26.48;;
30948;SDS011;17637;51.984;21.208;2022-12-18T02:47:28;57.83;;;28.40;;
30948;SDS011;17637;51.984;21.208;2022-12-18T02:50:30;69.97;;;34.95;;
30948;SDS011;17637;51.984;21.208;2022-12-18T02:56:07;52.50;;;27.55;;
30948;SDS011;17637;51.984;21.208;2022-12-18T03:04:21;67.57;;;31.75;;
30948;SDS011;17637;51.984;21.208;2022-12-18T03:06:59;77.53;;;35.78;;
30948;SDS011;17637;51.984;21.208;2022-12-18T03:09:38;58.08;;;26.48;;
30948;SDS011;17637;51.984;21.208;2022-12-18T03:12:19;75.68;;;34.05;;
30948;SDS011;17637;51.984;21.208;2022-12-18T03:14:59;68.32;;;32.50;;
30948;SDS011;17637;51.984;21.208;2022-12-18T03:17:35;76.97;;;35.65;;
30948;SDS011;17637;51.984;21.208;2022-12-18T03:20:14;78.05;;;36.47;;
30948;SDS011;17637;51.984;21.208;2022-12-18T03:22:51;74.47;;;35.58;;
30948;SDS011;17637;51.984;21.208;2022-12-18T03:25:27;93.60;;;41.22;;
30948;SDS011;17637;51.984;21.208;2022-12-18T03:28:02;83.43;;;37.17;;
30948;SDS011;17637;51.984;21.208;2022-12-18T03:30:37;70.53;;;32.47;;
30948;SDS011;17637;51.984;21.208;2022-12-18T03:33:24;69.95;;;32.78;;
30948;SDS011;17637;51.984;21.208;2022-12-18T03:36:01;83.97;;;37.40;;
30948;SDS011;17637;51.984;21.208;2022-12-18T03:38:33;82.82;;;38.00;;
30948;SDS011;17637;51.984;21.208;2022-12-18T03:49:01;56.10;;;27.55;;
30948;SDS011;17637;51.984;21.208;2022-12-18T03:52:06;52.85;;;26.90;;
30948;SDS011;17637;51.984;21.208;2022-12-18T03:54:45;54.35;;;26.52;;
30948;SDS011;17637;51.984;21.208;2022-12-18T03:57:18;61.63;;;30.25;;
30948;SDS011;17637;51.984;21.208;2022-12-18T03:59:57;84.68;;;38.20;;
30948;SDS011;17637;51.984;21.208;2022-12-18T04:02:34;72.30;;;33.88;;
30948;SDS011;17637;51.984;21.208;2022-12-18T04:05:09;70.40;;;35.55;;
30948;SDS011;17637;51.984;21.208;2022-12-18T04:07:47;84.25;;;38.08;;
30948;SDS011;17637;51.984;21.208;2022-12-18T04:10:22;70.72;;;34.22;;
30948;SDS011;17637;51.984;21.208;2022-12-18T04:12:57;69.80;;;35.30;;
30948;SDS011;17637;51.984;21.208;2022-12-18T04:15:31;64.45;;;31.10;;
30948;SDS011;17637;51.984;21.208;2022-12-18T04:18:07;62.90;;;31.45;;
30948;SDS011;17637;51.984;21.208;2022-12-18T04:20:39;58.03;;;29.58;;
30948;SDS011;17637;51.984;21.208;2022-12-18T04:23:11;60.05;;;28.85;;
30948;SDS011;17637;51.984;21.208;2022-12-18T04:25:43;80.03;;;35.38;;
30948;SDS011;17637;51.984;21.208;2022-12-18T04:28:15;80.13;;;34.72;;
30948;SDS011;17637;51.984;21.208;2022-12-18T04:30:48;104.90;;;43.92;;
30948;SDS011;17637;51.984;21.208;2022-12-18T04:33:21;80.40;;;35.17;;
30948;SDS011;17637;51.984;21.208;2022-12-18T04:35:53;60.15;;;29.15;;
30948;SDS011;17637;51.984;21.208;2022-12-18T04:38:25;65.45;;;31.17;;
30948;SDS011;17637;51.984;21.208;2022-12-18T04:40:58;63.40;;;30.15;;
30948;SDS011;17637;51.984;21.208;2022-12-18T04:43:30;72.28;;;33.80;;
30948;SDS011;17637;51.984;21.208;2022-12-18T04:46:07;66.88;;;32.35;;
30948;SDS011;17637;51.984;21.208;2022-12-18T04:48:40;61.60;;;31.33;;
30948;SDS011;17637;51.984;21.208;2022-12-18T04:51:12;61.47;;;29.08;;
30948;SDS011;17637;51.984;21.208;2022-12-18T04:53:44;61.50;;;30.35;;
30948;SDS011;17637;51.984;21.208;2022-12-18T04:56:16;62.47;;;29.30;;
30948;SDS011;17637;51.984;21.208;2022-12-18T04:58:48;52.10;;;25.73;;
30948;SDS011;17637;51.984;21.208;2022-12-18T05:01:20;57.38;;;29.42;;
30948;SDS011;17637;51.984;21.208;2022-12-18T05:03:53;59.40;;;30.40;;
30948;SDS011;17637;51.984;21.208;2022-12-18T05:06:25;51.42;;;23.88;;
30948;SDS011;17637;51.984;21.208;2022-12-18T05:08:57;51.35;;;25.92;;
30948;SDS011;17637;51.984;21.208;2022-12-18T05:11:29;52.55;;;25.30;;
30948;SDS011;17637;51.984;21.208;2022-12-18T05:14:02;54.42;;;26.65;;
30948;SDS011;17637;51.984;21.208;2022-12-18T05:16:34;51.92;;;24.77;;
30948;SDS011;17637;51.984;21.208;2022-12-18T05:19:06;54.47;;;26.77;;
30948;SDS011;17637;51.984;21.208;2022-12-18T05:21:38;55.47;;;27.17;;
30948;SDS011;17637;51.984;21.208;2022-12-18T05:24:10;40.72;;;18.08;;
30948;SDS011;17637;51.984;21.208;2022-12-18T05:26:42;54.88;;;28.90;;
30948;SDS011;17637;51.984;21.208;2022-12-18T05:29:14;63.88;;;29.73;;
30948;SDS011;17637;51.984;21.208;2022-12-18T05:31:46;52.17;;;25.90;;
30948;SDS011;17637;51.984;21.208;2022-12-18T05:34:18;68.68;;;31.48;;
30948;SDS011;17637;51.984;21.208;2022-12-18T05:36:50;64.90;;;30.25;;
30948;SDS011;17637;51.984;21.208;2022-12-18T05:39:22;64.88;;;30.35;;
30948;SDS011;17637;51.984;21.208;2022-12-18T05:41:55;73.13;;;35.97;;
30948;SDS011;17637;51.984;21.208;2022-12-18T05:44:27;72.55;;;37.22;;
30948;SDS011;17637;51.984;21.208;2022-12-18T05:46:59;60.22;;;29.38;;
30948;SDS011;17637;51.984;21.208;2022-12-18T05:49:31;73.47;;;37.78;;
30948;SDS011;17637;51.984;21.208;2022-12-18T05:52:03;72.80;;;37.15;;
30948;SDS011;17637;51.984;21.208;2022-12-18T05:54:37;66.00;;;35.47;;
30948;SDS011;17637;51.984;21.208;2022-12-18T05:57:09;64.10;;;32.45;;
30948;SDS011;17637;51.984;21.208;2022-12-18T05:59:41;65.15;;;35.42;;
30948;SDS011;17637;51.984;21.208;2022-12-18T06:02:13;64.28;;;32.22;;
30948;SDS011;17637;51.984;21.208;2022-12-18T06:04:46;56.65;;;26.95;;
30948;SDS011;17637;51.984;21.208;2022-12-18T06:07:18;61.75;;;29.45;;
30948;SDS011;17637;51.984;21.208;2022-12-18T06:09:50;59.13;;;28.80;;
30948;SDS011;17637;51.984;21.208;2022-12-18T06:12:22;63.33;;;29.40;;
30948;SDS011;17637;51.984;21.208;2022-12-18T06:14:54;60.00;;;30.17;;
30948;SDS011;17637;51.984;21.208;2022-12-18T06:17:29;60.95;;;28.58;;
30948;SDS011;17637;51.984;21.208;2022-12-18T06:20:03;60.22;;;29.65;;
30948;SDS011;17637;51.984;21.208;2022-12-18T06:22:36;59.00;;;28.13;;
30948;SDS011;17637;51.984;21.208;2022-12-18T06:25:08;58.17;;;26.55;;
30948;SDS011;17637;51.984;21.208;2022-12-18T06:27:40;70.25;;;31.83;;
30948;SDS011;17637;51.984;21.208;2022-12-18T06:30:13;76.13;;;36.10;;
30948;SDS011;17637;51.984;21.208;2022-12-18T06:32:45;61.53;;;24.30;;
30948;SDS011;17637;51.984;21.208;2022-12-18T06:35:26;72.13;;;34.25;;
30948;SDS011;17637;51.984;21.208;2022-12-18T06:37:58;75.25;;;33.95;;
30948;SDS011;17637;51.984;21.208;2022-12-18T06:40:33;64.30;;;29.73;;
30948;SDS011;17637;51.984;21.208;2022-12-18T06:43:05;93.85;;;43.33;;
30948;SDS011;17637;51.984;21.208;2022-12-18T06:45:38;75.95;;;37.60;;
30948;SDS011;17637;51.984;21.208;2022-12-18T06:48:10;76.55;;;33.67;;
30948;SDS011;17637;51.984;21.208;2022-12-18T06:50:42;77.68;;;34.80;;
30948;SDS011;17637;51.984;21.208;2022-12-18T06:53:14;65.50;;;31.35;;
30948;SDS011;17637;51.984;21.208;2022-12-18T06:55:46;66.53;;;30.73;;
30948;SDS011;17637;51.984;21.208;2022-12-18T06:58:18;66.28;;;32.45;;
30948;SDS011;17637;51.984;21.208;2022-12-18T07:00:50;71.65;;;33.63;;
30948;SDS011;17637;51.984;21.208;2022-12-18T07:03:23;66.88;;;32.45;;
30948;SDS011;17637;51.984;21.208;2022-12-18T07:05:55;60.55;;;27.98;;
30948;SDS011;17637;51.984;21.208;2022-12-18T07:08:28;66.32;;;28.52;;
30948;SDS011;17637;51.984;21.208;2022-12-18T07:11:02;57.33;;;26.67;;
30948;SDS011;17637;51.984;21.208;2022-12-18T07:13:36;61.22;;;29.52;;
30948;SDS011;17637;51.984;21.208;2022-12-18T07:16:10;70.13;;;32.45;;
30948;SDS011;17637;51.984;21.208;2022-12-18T07:18:54;66.82;;;30.48;;
30948;SDS011;17637;51.984;21.208;2022-12-18T07:21:27;60.63;;;28.52;;
30948;SDS011;17637;51.984;21.208;2022-12-18T07:23:59;58.85;;;26.20;;
30948;SDS011;17637;51.984;21.208;2022-12-18T07:26:31;66.35;;;29.42;;
30948;SDS011;17637;51.984;21.208;2022-12-18T07:29:03;77.68;;;36.75;;
30948;SDS011;17637;51.984;21.208;2022-12-18T07:31:36;62.60;;;30.52;;
30948;SDS011;17637;51.984;21.208;2022-12-18T07:34:10;81.18;;;37.00;;
30948;SDS011;17637;51.984;21.208;2022-12-18T07:36:46;67.93;;;33.22;;
30948;SDS011;17637;51.984;21.208;2022-12-18T07:39:18;100.70;;;45.22;;
30948;SDS011;17637;51.984;21.208;2022-12-18T07:41:50;85.72;;;35.28;;
30948;SDS011;17637;51.984;21.208;2022-12-18T07:44:40;76.47;;;34.53;;
30948;SDS011;17637;51.984;21.208;2022-12-18T07:47:12;90.55;;;41.42;;
30948;SDS011;17637;51.984;21.208;2022-12-18T07:49:44;73.95;;;36.38;;
30948;SDS011;17637;51.984;21.208;2022-12-18T07:52:17;71.43;;;33.08;;
30948;SDS011;17637;51.984;21.208;2022-12-18T07:54:56;75.68;;;34.45;;
30948;SDS011;17637;51.984;21.208;2022-12-18T07:57:28;88.95;;;40.08;;
30948;SDS011;17637;51.984;21.208;2022-12-18T08:00:21;70.85;;;35.00;;
30948;SDS011;17637;51.984;21.208;2022-12-18T08:02:54;66.13;;;34.25;;
30948;SDS011;17637;51.984;21.208;2022-12-18T08:05:26;66.10;;;33.55;;
30948;SDS011;17637;51.984;21.208;2022-12-18T08:07:59;73.50;;;36.80;;
30948;SDS011;17637;51.984;21.208;2022-12-18T08:10:31;87.82;;;35.83;;
30948;SDS011;17637;51.984;21.208;2022-12-18T08:13:03;93.68;;;40.70;;
30948;SDS011;17637;51.984;21.208;2022-12-18T08:15:35;69.30;;;32.15;;
30948;SDS011;17637;51.984;21.208;2022-12-18T08:18:08;89.35;;;43.15;;
30948;SDS011;17637;51.984;21.208;2022-12-18T08:20:44;76.97;;;33.70;;
30948;SDS011;17637;51.984;21.208;2022-12-18T08:23:16;73.72;;;35.20;;
30948;SDS011;17637;51.984;21.208;2022-12-18T08:25:48;82.45;;;38.10;;
30948;SDS011;17637;51.984;21.208;2022-12-18T08:28:21;83.90;;;38.13;;
30948;SDS011;17637;51.984;21.208;2022-12-18T08:30:53;78.63;;;35.85;;
30948;SDS011;17637;51.984;21.208;2022-12-18T08:33:25;72.32;;;37.65;;
30948;SDS011;17637;51.984;21.208;2022-12-18T08:35:58;71.32;;;36.33;;
30948;SDS011;17637;51.984;21.208;2022-12-18T08:38:31;64.00;;;31.05;;
30948;SDS011;17637;51.984;21.208;2022-12-18T08:41:05;57.85;;;26.85;;
30948;SDS011;17637;51.984;21.208;2022-12-18T08:43:38;66.38;;;32.03;;
30948;SDS011;17637;51.984;21.208;2022-12-18T08:46:39;52.95;;;22.42;;
30948;SDS011;17637;51.984;21.208;2022-12-18T08:49:13;64.68;;;30.75;;
30948;SDS011;17637;51.984;21.208;2022-12-18T08:51:45;77.28;;;37.30;;
30948;SDS011;17637;51.984;21.208;2022-12-18T08:54:17;81.32;;;36.78;;
30948;SDS011;17637;51.984;21.208;2022-12-18T08:56:50;75.07;;;34.53;;
30948;SDS011;17637;51.984;21.208;2022-12-18T08:59:22;73.53;;;32.50;;
30948;SDS011;17637;51.984;21.208;2022-12-18T09:01:55;60.58;;;30.05;;
30948;SDS011;17637;51.984;21.208;2022-12-18T09:04:27;83.47;;;40.42;;
30948;SDS011;17637;51.984;21.208;2022-12-18T09:06:59;67.93;;;33.30;;
30948;SDS011;17637;51.984;21.208;2022-12-18T09:09:31;75.78;;;36.60;;
30948;SDS011;17637;51.984;21.208;2022-12-18T09:12:04;72.85;;;34.53;;
30948;SDS011;17637;51.984;21.208;2022-12-18T09:14:36;63.90;;;30.38;;
30948;SDS011;17637;51.984;21.208;2022-12-18T09:17:08;70.80;;;32.55;;
30948;SDS011;17637;51.984;21.208;2022-12-18T09:19:40;78.13;;;39.70;;
30948;SDS011;17637;51.984;21.208;2022-12-18T09:22:13;63.03;;;32.15;;
30948;SDS011;17637;51.984;21.208;2022-12-18T09:24:45;56.15;;;28.30;;
30948;SDS011;17637;51.984;21.208;2022-12-18T09:27:17;82.75;;;40.00;;
30948;SDS011;17637;51.984;21.208;2022-12-18T09:29:49;72.13;;;36.00;;
30948;SDS011;17637;51.984;21.208;2022-12-18T09:32:21;67.78;;;33.42;;
30948;SDS011;17637;51.984;21.208;2022-12-18T09:34:53;65.60;;;36.47;;
30948;SDS011;17637;51.984;21.208;2022-12-18T09:37:25;138.98;;;67.45;;
30948;SDS011;17637;51.984;21.208;2022-12-18T09:39:57;145.73;;;64.50;;
30948;SDS011;17637;51.984;21.208;2022-12-18T09:42:29;175.45;;;78.32;;
30948;SDS011;17637;51.984;21.208;2022-12-18T09:45:01;155.50;;;66.55;;
30948;SDS011;17637;51.984;21.208;2022-12-18T09:47:35;125.50;;;57.47;;
30948;SDS011;17637;51.984;21.208;2022-12-18T09:53:21;65.10;;;31.55;;
30948;SDS011;17637;51.984;21.208;2022-12-18T09:55:56;76.22;;;38.58;;
30948;SDS011;17637;51.984;21.208;2022-12-18T10:01:18;62.22;;;30.92;;
30948;SDS011;17637;51.984;21.208;2022-12-18T10:03:54;67.80;;;32.40;;
30948;SDS011;17637;51.984;21.208;2022-12-18T10:06:42;59.45;;;30.52;;
30948;SDS011;17637;51.984;21.208;2022-12-18T10:12:37;67.57;;;32.78;;
30948;SDS011;17637;51.984;21.208;2022-12-18T10:19:09;77.50;;;39.23;;
30948;SDS011;17637;51.984;21.208;2022-12-18T10:21:39;80.95;;;41.83;;
30948;SDS011;17637;51.984;21.208;2022-12-18T10:24:20;78.70;;;42.10;;
30948;SDS011;17637;51.984;21.208;2022-12-18T10:26:55;74.32;;;39.17;;
30948;SDS011;17637;51.984;21.208;2022-12-18T10:29:40;74.78;;;37.15;;
30948;SDS011;17637;51.984;21.208;2022-12-18T10:32:15;55.10;;;30.67;;
30948;SDS011;17637;51.984;21.208;2022-12-18T10:34:50;60.80;;;31.25;;
30948;SDS011;17637;51.984;21.208;2022-12-18T10:37:31;61.05;;;32.55;;
30948;SDS011;17637;51.984;21.208;2022-12-18T10:40:08;63.25;;;33.58;;
30948;SDS011;17637;51.984;21.208;2022-12-18T10:42:41;59.17;;;32.67;;
30948;SDS011;17637;51.984;21.208;2022-12-18T10:45:15;70.05;;;39.95;;
30948;SDS011;17637;51.984;21.208;2022-12-18T10:47:51;71.60;;;37.42;;
30948;SDS011;17637;51.984;21.208;2022-12-18T10:50:29;67.80;;;35.80;;
30948;SDS011;17637;51.984;21.208;2022-12-18T10:53:27;62.65;;;34.78;;
30948;SDS011;17637;51.984;21.208;2022-12-18T10:56:01;74.50;;;38.88;;
30948;SDS011;17637;51.984;21.208;2022-12-18T10:58:37;76.65;;;40.95;;
30948;SDS011;17637;51.984;21.208;2022-12-18T11:01:15;68.35;;;34.53;;
30948;SDS011;17637;51.984;21.208;2022-12-18T11:06:22;70.57;;;36.90;;
30948;SDS011;17637;51.984;21.208;2022-12-18T11:11:55;78.05;;;38.13;;
30948;SDS011;17637;51.984;21.208;2022-12-18T11:14:32;73.97;;;38.38;;
30948;SDS011;17637;51.984;21.208;2022-12-18T11:17:16;82.15;;;43.47;;
30948;SDS011;17637;51.984;21.208;2022-12-18T11:20:07;74.38;;;39.22;;
30948;SDS011;17637;51.984;21.208;2022-12-18T11:23:04;76.25;;;36.58;;
30948;SDS011;17637;51.984;21.208;2022-12-18T11:25:50;64.80;;;34.50;;
30948;SDS011;17637;51.984;21.208;2022-12-18T11:28:40;66.40;;;34.40;;
30948;SDS011;17637;51.984;21.208;2022-12-18T11:31:22;77.82;;;40.20;;
30948;SDS011;17637;51.984;21.208;2022-12-18T11:34:10;63.75;;;31.80;;
30948;SDS011;17637;51.984;21.208;2022-12-18T11:37:00;67.80;;;33.50;;
30948;SDS011;17637;51.984;21.208;2022-12-18T11:39:40;69.10;;;35.75;;
30948;SDS011;17637;51.984;21.208;2022-12-18T11:42:25;64.78;;;33.35;;
30948;SDS011;17637;51.984;21.208;2022-12-18T11:47:51;61.55;;;30.17;;
30948;SDS011;17637;51.984;21.208;2022-12-18T11:53:24;72.40;;;37.10;;
30948;SDS011;17637;51.984;21.208;2022-12-18T12:12:56;70.45;;;35.90;;
30948;SDS011;17637;51.984;21.208;2022-12-18T12:18:59;66.88;;;33.08;;
30948;SDS011;17637;51.984;21.208;2022-12-18T12:21:39;76.13;;;38.75;;
30948;SDS011;17637;51.984;21.208;2022-12-18T12:32:25;59.72;;;32.33;;
30948;SDS011;17637;51.984;21.208;2022-12-18T12:40:51;71.40;;;34.95;;
30948;SDS011;17637;51.984;21.208;2022-12-18T12:43:43;68.32;;;33.95;;
30948;SDS011;17637;51.984;21.208;2022-12-18T12:46:21;82.63;;;38.42;;
30948;SDS011;17637;51.984;21.208;2022-12-18T12:48:56;72.93;;;38.03;;
30948;SDS011;17637;51.984;21.208;2022-12-18T12:51:33;86.25;;;42.45;;
30948;SDS011;17637;51.984;21.208;2022-12-18T12:54:14;83.32;;;41.65;;
30948;SDS011;17637;51.984;21.208;2022-12-18T12:59:45;85.55;;;40.40;;
30948;SDS011;17637;51.984;21.208;2022-12-18T13:08:04;67.80;;;34.70;;
30948;SDS011;17637;51.984;21.208;2022-12-18T13:10:39;77.45;;;37.17;;
30948;SDS011;17637;51.984;21.208;2022-12-18T13:13:14;76.75;;;36.78;;
30948;SDS011;17637;51.984;21.208;2022-12-18T13:18:37;70.93;;;35.65;;
30948;SDS011;17637;51.984;21.208;2022-12-18T13:21:18;69.82;;;35.20;;
30948;SDS011;17637;51.984;21.208;2022-12-18T13:23:55;66.95;;;35.38;;
30948;SDS011;17637;51.984;21.208;2022-12-18T13:26:40;79.20;;;38.78;;
30948;SDS011;17637;51.984;21.208;2022-12-18T13:29:12;74.47;;;37.05;;
30948;SDS011;17637;51.984;21.208;2022-12-18T13:32:23;75.43;;;39.05;;
30948;SDS011;17637;51.984;21.208;2022-12-18T13:37:53;91.10;;;42.30;;
30948;SDS011;17637;51.984;21.208;2022-12-18T13:48:22;72.38;;;37.30;;
30948;SDS011;17637;51.984;21.208;2022-12-18T13:56:31;72.45;;;36.90;;
30948;SDS011;17637;51.984;21.208;2022-12-18T14:01:50;99.07;;;49.75;;
30948;SDS011;17637;51.984;21.208;2022-12-18T14:07:07;76.15;;;37.72;;
30948;SDS011;17637;51.984;21.208;2022-12-18T14:09:48;79.45;;;38.97;;
30948;SDS011;17637;51.984;21.208;2022-12-18T14:12:32;74.25;;;35.70;;
30948;SDS011;17637;51.984;21.208;2022-12-18T14:20:58;81.47;;;40.17;;
30948;SDS011;17637;51.984;21.208;2022-12-18T14:26:28;89.32;;;43.03;;
30948;SDS011;17637;51.984;21.208;2022-12-18T14:29:22;87.18;;;42.42;;
30948;SDS011;17637;51.984;21.208;2022-12-18T14:34:50;89.80;;;43.45;;
30948;SDS011;17637;51.984;21.208;2022-12-18T14:37:24;86.05;;;44.00;;
30948;SDS011;17637;51.984;21.208;2022-12-18T14:39:58;88.03;;;44.72;;
30948;SDS011;17637;51.984;21.208;2022-12-18T14:42:41;84.97;;;40.05;;
30948;SDS011;17637;51.984;21.208;2022-12-18T14:45:33;85.90;;;44.70;;
30948;SDS011;17637;51.984;21.208;2022-12-18T14:50:58;88.25;;;43.53;;
30948;SDS011;17637;51.984;21.208;2022-12-18T14:58:57;70.30;;;36.22;;
30948;SDS011;17637;51.984;21.208;2022-12-18T15:01:33;71.85;;;37.08;;
30948;SDS011;17637;51.984;21.208;2022-12-18T15:04:27;78.90;;;38.78;;
30948;SDS011;17637;51.984;21.208;2022-12-18T15:07:12;74.18;;;35.78;;
30948;SDS011;17637;51.984;21.208;2022-12-18T15:10:19;90.63;;;43.97;;
30948;SDS011;17637;51.984;21.208;2022-12-18T15:18:16;95.05;;;44.92;;
30948;SDS011;17637;51.984;21.208;2022-12-18T15:20:56;80.25;;;40.63;;
30948;SDS011;17637;51.984;21.208;2022-12-18T15:26:22;79.28;;;40.20;;
30948;SDS011;17637;51.984;21.208;2022-12-18T15:28:57;69.68;;;35.92;;
30948;SDS011;17637;51.984;21.208;2022-12-18T15:31:34;91.60;;;45.87;;
30948;SDS011;17637;51.984;21.208;2022-12-18T15:34:12;89.03;;;43.90;;
30948;SDS011;17637;51.984;21.208;2022-12-18T15:36:54;94.43;;;46.78;;
30948;SDS011;17637;51.984;21.208;2022-12-18T15:39:26;97.43;;;48.70;;
30948;SDS011;17637;51.984;21.208;2022-12-18T15:41:58;88.75;;;45.10;;
30948;SDS011;17637;51.984;21.208;2022-12-18T15:44:50;97.47;;;46.75;;
30948;SDS011;17637;51.984;21.208;2022-12-18T15:47:22;87.72;;;43.50;;
30948;SDS011;17637;51.984;21.208;2022-12-18T15:49:54;85.55;;;42.78;;
30948;SDS011;17637;51.984;21.208;2022-12-18T15:52:26;102.30;;;47.60;;
30948;SDS011;17637;51.984;21.208;2022-12-18T15:54:58;104.82;;;47.53;;
30948;SDS011;17637;51.984;21.208;2022-12-18T15:57:49;83.55;;;39.67;;
30948;SDS011;17637;51.984;21.208;2022-12-18T16:00:21;67.90;;;33.30;;
30948;SDS011;17637;51.984;21.208;2022-12-18T16:02:53;69.57;;;34.80;;
30948;SDS011;17637;51.984;21.208;2022-12-18T16:05:27;68.78;;;36.13;;
30948;SDS011;17637;51.984;21.208;2022-12-18T16:07:59;77.07;;;36.78;;
30948;SDS011;17637;51.984;21.208;2022-12-18T16:10:31;68.82;;;35.78;;
30948;SDS011;17637;51.984;21.208;2022-12-18T16:13:03;84.55;;;40.00;;
30948;SDS011;17637;51.984;21.208;2022-12-18T16:15:35;77.03;;;37.78;;
30948;SDS011;17637;51.984;21.208;2022-12-18T16:18:08;69.80;;;35.80;;
30948;SDS011;17637;51.984;21.208;2022-12-18T16:20:40;66.47;;;32.53;;
30948;SDS011;17637;51.984;21.208;2022-12-18T16:23:12;70.93;;;36.42;;
30948;SDS011;17637;51.984;21.208;2022-12-18T16:25:44;71.25;;;35.40;;
30948;SDS011;17637;51.984;21.208;2022-12-18T16:28:16;76.38;;;38.42;;
30948;SDS011;17637;51.984;21.208;2022-12-18T16:30:48;91.78;;;43.38;;
30948;SDS011;17637;51.984;21.208;2022-12-18T16:33:20;97.30;;;47.20;;
30948;SDS011;17637;51.984;21.208;2022-12-18T16:35:52;81.05;;;40.33;;
30948;SDS011;17637;51.984;21.208;2022-12-18T16:38:24;76.20;;;37.78;;
30948;SDS011;17637;51.984;21.208;2022-12-18T16:40:56;78.93;;;36.15;;
30948;SDS011;17637;51.984;21.208;2022-12-18T16:43:47;65.20;;;30.65;;
30948;SDS011;17637;51.984;21.208;2022-12-18T16:46:25;76.03;;;35.03;;
30948;SDS011;17637;51.984;21.208;2022-12-18T16:48:58;80.65;;;37.55;;
30948;SDS011;17637;51.984;21.208;2022-12-18T16:51:30;86.00;;;39.10;;
30948;SDS011;17637;51.984;21.208;2022-12-18T16:54:02;76.32;;;37.75;;
30948;SDS011;17637;51.984;21.208;2022-12-18T16:56:41;81.28;;;42.35;;
30948;SDS011;17637;51.984;21.208;2022-12-18T16:59:13;78.50;;;40.88;;
30948;SDS011;17637;51.984;21.208;2022-12-18T17:01:46;76.75;;;37.30;;
30948;SDS011;17637;51.984;21.208;2022-12-18T17:04:18;81.28;;;39.78;;
30948;SDS011;17637;51.984;21.208;2022-12-18T17:06:50;75.97;;;38.60;;
30948;SDS011;17637;51.984;21.208;2022-12-18T17:09:24;72.80;;;38.38;;
30948;SDS011;17637;51.984;21.208;2022-12-18T17:12:00;82.43;;;41.95;;
30948;SDS011;17637;51.984;21.208;2022-12-18T17:14:34;90.25;;;45.75;;
30948;SDS011;17637;51.984;21.208;2022-12-18T17:17:07;72.43;;;37.65;;
30948;SDS011;17637;51.984;21.208;2022-12-18T17:19:54;72.22;;;33.88;;
30948;SDS011;17637;51.984;21.208;2022-12-18T17:22:27;67.35;;;34.60;;
30948;SDS011;17637;51.984;21.208;2022-12-18T17:24:59;70.03;;;34.90;;
30948;SDS011;17637;51.984;21.208;2022-12-18T17:27:31;58.05;;;29.30;;
30948;SDS011;17637;51.984;21.208;2022-12-18T17:30:03;69.30;;;34.05;;
30948;SDS011;17637;51.984;21.208;2022-12-18T17:32:35;61.55;;;31.42;;